Time;durP1;ratioP1;P1;durP2;ratioP2;P2;SDS_P1;SDS_P2;PMS_P1;PMS_P2;Temp;Humidity;BMP_temperature;BMP_pressure;BME280_temperature;BME280_humidity;BME280_pressure;Samples;Min_cycle;Max_cycle;Signal;HPM_P1;HPM_P2
2023/06/02 00:00:48;;;;;;;;;;;;;;;;;;5015783;28;4597;-58
2023/06/02 00:03:14;;;;;;;;;;;;;;;;;;5019362;28;3501;-58
2023/06/02 00:05:39;;;;;;;;;;;;;;;;;;5015468;28;4570;-58
2023/06/02 00:08:05;;;;;;;;;;;;;;;;;;5020336;28;4504;-59
2023/06/02 00:10:30;;;;;;;;;;;;;;;;;;5018534;28;4487;-59
2023/06/02 00:12:55;;;;;;;;;;;;;;;;;;5020103;28;5102;-58
2023/06/02 00:15:20;;;;;;;;;;;;;;;;;;5018167;28;3207;-59
2023/06/02 00:17:46;;;;;;;;;;;;;;;;;;5019411;28;4453;-59
2023/06/02 00:20:11;;;;;;;;;;;;;;;;;;5021366;28;4479;-58
2023/06/02 00:22:39;;;;;;;;;;;;;;;;;;5016063;28;5928;-58
2023/06/02 00:25:05;;;;;;;;;;;;;;;;;;5015485;28;4731;-59
2023/06/02 00:27:30;;;;;;;;;;;;;;;;;;5021227;28;4184;-58
2023/06/02 00:29:55;;;;;;;;;;;;;;;;;;5018705;28;4681;-60
2023/06/02 00:32:21;;;;;;;;;;;;;;;;;;5012676;28;4597;-58
2023/06/02 00:34:46;;;;;;;;;;;;;;;;;;5014570;28;4696;-59
2023/06/02 00:37:11;;;;;;;;;;;;;;;;;;5016259;28;5077;-60
2023/06/02 00:39:36;;;;;;;;;;;;;;;;;;5023117;28;3702;-59
2023/06/02 00:42:02;;;;;;;;;;;;;;;;;;5015697;28;4975;-58
2023/06/02 00:44:27;;;;;;;;;;;;;;;;;;5047077;28;5037;-59
2023/06/02 00:46:54;;;;;;;;;;;;;;;;;;5010634;28;5212;-59
2023/06/02 00:49:19;;;;;;;;;;;;;;;;;;5022540;28;4737;-59
2023/06/02 00:51:45;;;;;;;;;;;;;;;;;;5014536;28;3322;-60
2023/06/02 00:54:10;;;;;;;;;;;;;;;;;;5020270;28;5001;-60
2023/06/02 00:56:36;;;;;;;;;;;;;;;;;;5023380;28;4687;-58
2023/06/02 00:59:01;;;;;;;;;;;;;;;;;;5012972;28;5027;-59
2023/06/02 01:01:29;;;;;;;;;;;;;;;;;;5044797;28;4498;-59
2023/06/02 01:03:54;;;;;;;;;;;;;;;;;;5007352;28;4766;-60
2023/06/02 01:06:23;;;;;;;;;;;;;;;;;;5024207;28;3698;-60
2023/06/02 01:08:48;;;;;;;;;;;;;;;;;;5049352;28;4550;-59
2023/06/02 01:11:13;;;;;;;;;;;;;;;;;;5048545;28;5001;-61
2023/06/02 01:13:38;;;;;;;;;;;;;;;;;;5017131;28;4753;-59
2023/06/02 01:16:05;;;;;;;;;;;;;;;;;;5020579;28;4953;-60
2023/06/02 01:18:31;;;;;;;;;;;;;;;;;;5022504;28;3162;-59
2023/06/02 01:21:01;;;;;;;;;;;;;;;;;;5014735;28;4468;-59
2023/06/02 01:23:33;;;;;;;;;;;;;;;;;;5023744;28;4714;-62
2023/06/02 01:25:59;;;;;;;;;;;;;;;;;;5031953;28;5404;-60
2023/06/02 01:28:26;;;;;;;;;;;;;;;;;;5017488;28;4471;-59
2023/06/02 01:30:52;;;;;;;;;;;;;;;;;;5025122;28;4700;-60
2023/06/02 01:33:21;;;;;;;;;;;;;;;;;;5012646;28;3202;-59
2023/06/02 01:35:54;;;;;;;;;;;;;;;;;;5053428;28;4441;-58
2023/06/02 01:38:19;;;;;;;;;;;;;;;;;;5055550;28;4468;-60
2023/06/02 01:40:45;;;;;;;;;;;;;;;;;;5055536;28;4661;-59
2023/06/02 01:43:10;;;;;;;;;;;;;;;;;;5040058;28;4532;-59
2023/06/02 01:45:36;;;;;;;;;;;;;;;;;;5003322;28;3532;-60
2023/06/02 01:48:02;;;;;;;;;;;;;;;;;;5015212;28;4844;-58
2023/06/02 01:50:27;;;;;;;;;;;;;;;;;;5016208;28;4685;-60
2023/06/02 01:52:52;;;;;;;;;;;;;;;;;;5022715;28;5145;-58
2023/06/02 01:55:18;;;;;;;;;;;;;;;;;;5020042;28;4763;-58
2023/06/02 01:57:43;;;;;;;;;;;;;;;;;;5020543;28;3261;-61
2023/06/02 02:00:09;;;;;;;;;;;;;;;;;;5014540;28;4537;-59
2023/06/02 02:02:34;;;;;;;;;;;;;;;;;;5018167;28;5221;-59
2023/06/02 02:05:00;;;;;;;;;;;;;;;;;;5015815;28;4819;-60
2023/06/02 02:07:25;;;;;;;;;;;;;;;;;;5014499;28;4684;-58
2023/06/02 02:09:51;;;;;;;;;;;;;;;;;;5019577;28;4490;-62
2023/06/02 02:12:16;;;;;;;;;;;;;;;;;;5048152;28;3598;-59
2023/06/02 02:14:41;;;;;;;;;;;;;;;;;;5014559;28;4446;-59
2023/06/02 02:17:09;;;;;;;;;;;;;;;;;;5015544;28;4519;-60
2023/06/02 02:19:36;;;;;;;;;;;;;;;;;;5013678;28;5029;-59
2023/06/02 02:22:01;;;;;;;;;;;;;;;;;;5019507;28;4893;-60
2023/06/02 02:24:27;;;;;;;;;;;;;;;;;;5014747;28;3516;-62
2023/06/02 02:26:52;;;;;;;;;;;;;;;;;;5017050;28;4669;-59
2023/06/02 02:29:17;;;;;;;;;;;;;;;;;;5022137;28;4525;-58
2023/06/02 02:31:43;;;;;;;;;;;;;;;;;;5019866;28;4735;-58
2023/06/02 02:34:08;;;;;;;;;;;;;;;;;;5018946;28;4488;-59
2023/06/02 02:36:33;;;;;;;;;;;;;;;;;;5029963;28;1918;-60
2023/06/02 02:38:59;;;;;;;;;;;;;;;;;;5016085;28;4669;-60
2023/06/02 02:41:26;;;;;;;;;;;;;;;;;;5024466;28;4521;-58
2023/06/02 02:43:51;;;;;;;;;;;;;;;;;;5016369;28;5082;-59
2023/06/02 02:46:16;;;;;;;;;;;;;;;;;;5026745;28;4531;-59
2023/06/02 02:48:41;;;;;;;;;;;;;;;;;;5014622;28;3690;-61
2023/06/02 02:51:07;;;;;;;;;;;;;;;;;;5018323;28;4571;-58
2023/06/02 02:53:32;;;;;;;;;;;;;;;;;;5021904;28;4590;-60
2023/06/02 02:55:57;;;;;;;;;;;;;;;;;;5013493;28;6016;-61
2023/06/02 02:58:24;;;;;;;;;;;;;;;;;;5021719;28;4688;-58
2023/06/02 03:00:49;;;;;;;;;;;;;;;;;;5017765;28;5093;-59
2023/06/02 03:03:15;;;;;;;;;;;;;;;;;;5023181;28;3194;-58
2023/06/02 03:05:41;;;;;;;;;;;;;;;;;;5019445;28;4642;-59
2023/06/02 03:08:07;;;;;;;;;;;;;;;;;;5015820;28;4676;-59
2023/06/02 03:10:32;;;;;;;;;;;;;;;;;;5015659;28;4642;-60
2023/06/02 03:12:57;;;;;;;;;;;;;;;;;;5015667;28;5024;-59
2023/06/02 03:15:22;;;;;;;;;;;;;;;;;;5020027;28;3624;-59
2023/06/02 03:17:50;;;;;;;;;;;;;;;;;;5021226;28;4490;-58
2023/06/02 03:20:16;;;;;;;;;;;;;;;;;;5043843;28;4478;-59
2023/06/02 03:22:43;;;;;;;;;;;;;;;;;;5020083;28;4443;-62
2023/06/02 03:25:08;;;;;;;;;;;;;;;;;;5016091;28;4503;-59
2023/06/02 03:27:34;;;;;;;;;;;;;;;;;;5022537;28;3571;-60
2023/06/02 03:29:59;;;;;;;;;;;;;;;;;;5043200;28;4768;-59
2023/06/02 03:32:24;;;;;;;;;;;;;;;;;;5048557;28;4537;-58
2023/06/02 03:34:49;;;;;;;;;;;;;;;;;;5018633;28;4509;-58
2023/06/02 03:37:15;;;;;;;;;;;;;;;;;;5019745;28;5170;-59
2023/06/02 03:39:40;;;;;;;;;;;;;;;;;;5021358;28;3594;-58
2023/06/02 03:42:05;;;;;;;;;;;;;;;;;;5015131;28;5602;-59
2023/06/02 03:44:31;;;;;;;;;;;;;;;;;;5015745;28;4664;-59
2023/06/02 03:46:56;;;;;;;;;;;;;;;;;;5009511;28;4509;-59
2023/06/02 03:49:26;;;;;;;;;;;;;;;;;;5020824;28;4987;-61
2023/06/02 03:51:52;;;;;;;;;;;;;;;;;;5021897;28;4508;-60
2023/06/02 03:54:17;;;;;;;;;;;;;;;;;;5018569;28;5013;-59
2023/06/02 03:56:42;;;;;;;;;;;;;;;;;;5023547;28;4482;-59
2023/06/02 03:59:07;;;;;;;;;;;;;;;;;;5018998;28;4697;-60
2023/06/02 04:01:35;;;;;;;;;;;;;;;;;;5017147;28;4956;-59
2023/06/02 04:04:00;;;;;;;;;;;;;;;;;;5016008;28;4902;-60
2023/06/02 04:06:25;;;;;;;;;;;;;;;;;;5021396;28;3524;-61
2023/06/02 04:08:51;;;;;;;;;;;;;;;;;;5020885;28;4471;-59
2023/06/02 04:11:16;;;;;;;;;;;;;;;;;;5023281;28;5055;-60
2023/06/02 04:13:42;;;;;;;;;;;;;;;;;;5025882;28;5048;-62
2023/06/02 04:16:07;;;;;;;;;;;;;;;;;;5053361;28;4625;-59
2023/06/02 04:18:35;;;;;;;;;;;;;;;;;;5017763;28;1661;-59
2023/06/02 04:21:01;;;;;;;;;;;;;;;;;;5020921;28;4602;-59
2023/06/02 04:23:26;;;;;;;;;;;;;;;;;;5016456;28;4634;-59
2023/06/02 04:25:51;;;;;;;;;;;;;;;;;;5020261;28;4684;-59
2023/06/02 04:28:19;;;;;;;;;;;;;;;;;;5020504;28;5014;-60
2023/06/02 04:30:44;;;;;;;;;;;;;;;;;;5022065;28;1022;-60
2023/06/02 04:33:09;;;;;;;;;;;;;;;;;;5018557;28;4873;-60
2023/06/02 04:35:35;;;;;;;;;;;;;;;;;;5011699;28;4463;-58
2023/06/02 04:38:00;;;;;;;;;;;;;;;;;;5021481;28;4511;-61
2023/06/02 04:40:25;;;;;;;;;;;;;;;;;;5020968;28;5053;-58
2023/06/02 04:42:50;;;;;;;;;;;;;;;;;;5025772;28;4955;-62
2023/06/02 04:45:16;;;;;;;;;;;;;;;;;;5023913;28;3347;-58
2023/06/02 04:47:41;;;;;;;;;;;;;;;;;;5016121;28;4388;-59
2023/06/02 04:50:08;;;;;;;;;;;;;;;;;;5018731;28;5549;-58
2023/06/02 04:52:34;;;;;;;;;;;;;;;;;;5021683;28;4524;-59
2023/06/02 04:55:00;;;;;;;;;;;;;;;;;;5020813;28;4885;-61
2023/06/02 04:57:25;;;;;;;;;;;;;;;;;;5026123;28;1914;-59
2023/06/02 04:59:51;;;;;;;;;;;;;;;;;;5022292;28;4494;-58
2023/06/02 05:02:16;;;;;;;;;;;;;;;;;;5023120;28;4637;-59
2023/06/02 05:04:42;;;;;;;;;;;;;;;;;;5012533;28;4710;-60
2023/06/02 05:07:07;;;;;;;;;;;;;;;;;;5007111;28;4812;-59
2023/06/02 05:09:32;;;;;;;;;;;;;;;;;;5026104;28;2138;-59
2023/06/02 05:11:59;;;;;;;;;;;;;;;;;;5024704;28;5183;-62
2023/06/02 05:14:24;;;;;;;;;;;;;;;;;;5012941;28;4624;-58
2023/06/02 05:16:50;;;;;;;;;;;;;;;;;;5017708;28;4552;-60
2023/06/02 05:19:15;;;;;;;;;;;;;;;;;;5023646;28;4560;-59
2023/06/02 05:21:40;;;;;;;;;;;;;;;;;;5017513;28;3262;-59
2023/06/02 05:24:06;;;;;;;;;;;;;;;;;;5020168;28;4666;-58
2023/06/02 05:26:31;;;;;;;;;;;;;;;;;;5023179;28;5033;-60
2023/06/02 05:28:57;;;;;;;;;;;;;;;;;;5025290;28;4537;-59
2023/06/02 05:31:22;;;;;;;;;;;;;;;;;;5006163;28;4698;-60
2023/06/02 05:33:48;;;;;;;;;;;;;;;;;;5014148;28;3180;-58
2023/06/02 05:36:13;;;;;;;;;;;;;;;;;;5018002;28;4956;-60
2023/06/02 05:38:42;;;;;;;;;;;;;;;;;;5022218;28;4707;-60
2023/06/02 05:41:07;;;;;;;;;;;;;;;;;;5019128;28;4704;-58
2023/06/02 05:43:32;;;;;;;;;;;;;;;;;;5015181;28;4537;-60
2023/06/02 05:45:58;;;;;;;;;;;;;;;;;;5008618;28;4652;-60
2023/06/02 05:48:23;;;;;;;;;;;;;;;;;;5011825;28;3717;-59
2023/06/02 05:50:48;;;;;;;;;;;;;;;;;;5023503;28;4746;-59
2023/06/02 05:53:14;;;;;;;;;;;;;;;;;;5018395;28;4630;-59
2023/06/02 05:55:39;;;;;;;;;;;;;;;;;;5017383;28;5128;-59
2023/06/02 05:58:04;;;;;;;;;;;;;;;;;;5015192;28;4945;-59
2023/06/02 06:00:30;;;;;;;;;;;;;;;;;;5017062;28;3327;-61
2023/06/02 06:02:55;;;;;;;;;;;;;;;;;;5008740;28;4478;-61
2023/06/02 06:05:20;;;;;;;;;;;;;;;;;;5012234;28;4563;-61
2023/06/02 06:07:45;;;;;;;;;;;;;;;;;;5018254;28;4515;-60
2023/06/02 06:10:12;;;;;;;;;;;;;;;;;;5018242;28;4727;-59
2023/06/02 06:12:37;;;;;;;;;;;;;;;;;;5018237;28;3549;-61
2023/06/02 06:15:03;;;;;;;;;;;;;;;;;;5017824;28;4490;-60
2023/06/02 06:17:28;;;;;;;;;;;;;;;;;;5018369;28;4542;-62
2023/06/02 06:19:53;;;;;;;;;;;;;;;;;;5015659;28;5134;-61
2023/06/02 06:22:18;;;;;;;;;;;;;;;;;;5018808;28;4539;-61
2023/06/02 06:24:44;;;;;;;;;;;;;;;;;;5020945;28;3299;-59
2023/06/02 06:27:09;;;;;;;;;;;;;;;;;;5018656;28;4415;-67
2023/06/02 06:29:34;;;;;;;;;;;;;;;;;;5012933;28;4535;-66
2023/06/02 06:33:14;;;;;;;;;;;;;;;;;;5018237;28;4437;-63
2023/06/02 06:35:39;;;;;;;;;;;;;;;;;;5019064;28;4911;-62
2023/06/02 06:38:04;;;;;;;;;;;;;;;;;;5018461;28;4714;-73
2023/06/02 06:40:30;;;;;;;;;;;;;;;;;;5016834;28;4667;-67
2023/06/02 06:42:56;;;;;;;;;;;;;;;;;;5014819;28;5024;-73
2023/06/02 06:45:21;;;;;;;;;;;;;;;;;;5018054;28;3481;-67
2023/06/02 06:47:46;;;;;;;;;;;;;;;;;;5018591;28;4877;-70
2023/06/02 06:50:12;;;;;;;;;;;;;;;;;;5023859;28;5068;-69
2023/06/02 06:52:37;;;;;;;;;;;;;;;;;;5016036;28;5031;-64
2023/06/02 06:55:03;;;;;;;;;;;;;;;;;;5021089;28;4751;-69
2023/06/02 06:57:28;;;;;;;;;;;;;;;;;;5019555;28;3571;-66
2023/06/02 06:59:54;;;;;;;;;;;;;;;;;;5020290;28;4960;-73
2023/06/02 07:02:19;;;;;;;;;;;;;;;;;;5017317;28;5138;-65
2023/06/02 07:04:45;;;;;;;;;;;;;;;;;;5027468;28;4697;-68
2023/06/02 07:07:11;;;;;;;;;;;;;;;;;;5052669;28;4535;-58
2023/06/02 07:09:37;;;;;;;;;;;;;;;;;;5019108;28;3591;-58
2023/06/02 07:12:02;;;;;;;;;;;;;;;;;;5026722;28;4914;-58
2023/06/02 07:14:29;;;;;;;;;;;;;;;;;;5019555;28;4465;-59
2023/06/02 07:16:54;;;;;;;;;;;;;;;;;;5020733;28;4527;-59
2023/06/02 07:19:23;;;;;;;;;;;;;;;;;;5018589;28;4475;-56
2023/06/02 07:21:48;;;;;;;;;;;;;;;;;;5002468;28;3230;-55
2023/06/02 07:24:13;;;;;;;;;;;;;;;;;;5022489;28;4757;-60
2023/06/02 07:26:39;;;;;;;;;;;;;;;;;;5022305;28;4996;-57
2023/06/02 07:29:04;;;;;;;;;;;;;;;;;;5020714;28;4793;-57
2023/06/02 07:31:29;;;;;;;;;;;;;;;;;;5018117;28;4646;-57
2023/06/02 07:33:56;;;;;;;;;;;;;;;;;;5018388;28;4501;-57
2023/06/02 07:36:22;;;;;;;;;;;;;;;;;;5014322;28;3492;-58
2023/06/02 07:38:47;;;;;;;;;;;;;;;;;;5020502;28;4427;-64
2023/06/02 07:41:12;;;;;;;;;;;;;;;;;;5022778;28;4627;-62
2023/06/02 07:43:37;;;;;;;;;;;;;;;;;;5012615;28;4841;-63
2023/06/02 07:46:03;;;;;;;;;;;;;;;;;;5011041;28;4522;-65
2023/06/02 07:48:28;;;;;;;;;;;;;;;;;;5004827;28;3354;-58
2023/06/02 07:50:53;;;;;;;;;;;;;;;;;;5007562;28;4515;-58
2023/06/02 07:53:19;;;;;;;;;;;;;;;;;;5005122;28;4802;-64
2023/06/02 07:55:45;;;;;;;;;;;;;;;;;;5004483;28;5505;-58
2023/06/02 07:58:10;;;;;;;;;;;;;;;;;;5005189;28;4477;-65
2023/06/02 08:00:38;;;;;;;;;;;;;;;;;;5011994;28;3222;-61
2023/06/02 08:03:03;;;;;;;;;;;;;;;;;;5002544;28;4523;-61
2023/06/02 08:05:28;;;;;;;;;;;;;;;;;;5002736;28;5675;-59
2023/06/02 08:07:53;;;;;;;;;;;;;;;;;;5006971;28;4483;-58
2023/06/02 08:10:19;;;;;;;;;;;;;;;;;;5003850;28;4587;-66
2023/06/02 08:12:44;;;;;;;;;;;;;;;;;;4998796;28;3338;-67
2023/06/02 08:15:10;;;;;;;;;;;;;;;;;;5003781;28;4802;-60
2023/06/02 08:17:35;;;;;;;;;;;;;;;;;;5005667;28;5067;-63
2023/06/02 08:20:01;;;;;;;;;;;;;;;;;;5005321;28;4490;-64
2023/06/02 08:22:27;;;;;;;;;;;;;;;;;;5005600;28;4793;-61
2023/06/02 08:24:55;;;;;;;;;;;;;;;;;;5000275;28;4486;-66
2023/06/02 08:27:21;;;;;;;;;;;;;;;;;;5003564;28;3238;-65
2023/06/02 08:29:46;;;;;;;;;;;;;;;;;;5006402;28;4511;-64
2023/06/02 08:32:12;;;;;;;;;;;;;;;;;;5005766;28;4516;-59
2023/06/02 08:34:41;;;;;;;;;;;;;;;;;;5001762;28;4499;-64
2023/06/02 08:37:16;;;;;;;;;;;;;;;;;;5016922;28;4491;-59
2023/06/02 08:39:41;;;;;;;;;;;;;;;;;;5004716;28;3222;-65
2023/06/02 08:42:08;;;;;;;;;;;;;;;;;;5019380;28;5039;-62
2023/06/02 08:44:34;;;;;;;;;;;;;;;;;;5002690;28;5971;-59
2023/06/02 08:47:00;;;;;;;;;;;;;;;;;;4999655;28;4690;-53
2023/06/02 08:49:25;;;;;;;;;;;;;;;;;;5004736;28;4604;-53
2023/06/02 08:51:51;;;;;;;;;;;;;;;;;;5003970;28;4712;-50
2023/06/02 08:54:17;;;;;;;;;;;;;;;;;;5001661;28;5035;-54
2023/06/02 08:56:43;;;;;;;;;;;;;;;;;;5004386;28;4955;-60
2023/06/02 08:59:09;;;;;;;;;;;;;;;;;;5026823;28;4968;-65
2023/06/02 09:01:34;;;;;;;;;;;;;;;;;;5016436;28;4554;-65
2023/06/02 09:04:00;;;;;;;;;;;;;;;;;;5006829;28;5041;-63
2023/06/02 09:06:28;;;;;;;;;;;;;;;;;;5006123;28;3371;-62
2023/06/02 09:08:57;;;;;;;;;;;;;;;;;;5006863;28;4959;-61
2023/06/02 09:11:23;;;;;;;;;;;;;;;;;;5005552;28;4470;-61
2023/06/02 09:13:48;;;;;;;;;;;;;;;;;;5006831;28;4723;-60
2023/06/02 09:16:13;;;;;;;;;;;;;;;;;;5005793;28;4521;-63
2023/06/02 09:18:38;;;;;;;;;;;;;;;;;;5000315;28;3355;-64
2023/06/02 09:21:04;;;;;;;;;;;;;;;;;;5006685;28;4967;-61
2023/06/02 09:23:39;;;;;;;;;;;;;;;;;;5006022;28;4534;-67
2023/06/02 09:26:04;;;;;;;;;;;;;;;;;;5009232;28;4464;-63
2023/06/02 09:28:30;;;;;;;;;;;;;;;;;;5005934;28;5584;-59
2023/06/02 09:31:03;;;;;;;;;;;;;;;;;;4997938;28;5177;-61
2023/06/02 09:33:28;;;;;;;;;;;;;;;;;;5002277;28;3353;-58
2023/06/02 09:35:53;;;;;;;;;;;;;;;;;;5006651;28;4897;-61
2023/06/02 09:38:18;;;;;;;;;;;;;;;;;;5003633;28;4597;-60
2023/06/02 09:40:44;;;;;;;;;;;;;;;;;;5003250;28;5015;-59
2023/06/02 09:43:10;;;;;;;;;;;;;;;;;;5018151;28;4626;-59
2023/06/02 09:45:47;;;;;;;;;;;;;;;;;;5002886;28;3004;-58
2023/06/02 09:48:19;;;;;;;;;;;;;;;;;;4996428;28;4408;-62
2023/06/02 09:50:44;;;;;;;;;;;;;;;;;;4996789;28;4685;-64
2023/06/02 09:53:11;;;;;;;;;;;;;;;;;;5003600;28;1918;-63
2023/06/02 09:55:37;;;;;;;;;;;;;;;;;;5010008;28;1192;-63
2023/06/02 09:58:03;;;;;;;;;;;;;;;;;;5005221;28;1686;-54
2023/06/02 10:00:28;;;;;;;;;;;;;;;;;;5005700;28;1581;-66
2023/06/02 10:02:54;;;;;;;;;;;;;;;;;;5005054;28;1662;-63
2023/06/02 10:05:22;;;;;;;;;;;;;;;;;;5004056;28;1707;-65
2023/06/02 10:07:47;;;;;;;;;;;;;;;;;;5005410;28;1636;-62
2023/06/02 10:10:31;;;;;;;;;;;;;;;;;;5003829;28;1592;-62
2023/06/02 10:13:11;;;;;;;;;;;;;;;;;;5004759;28;1983;-60
2023/06/02 10:15:53;;;;;;;;;;;;;;;;;;5003769;28;1667;-56
2023/06/02 10:18:28;;;;;;;;;;;;;;;;;;5005853;28;1348;-57
2023/06/02 10:21:06;;;;;;;;;;;;;;;;;;5005456;28;1474;-57
2023/06/02 10:23:40;;;;;;;;;;;;;;;;;;5006238;28;1674;-59
2023/06/02 10:26:15;;;;;;;;;;;;;;;;;;5001205;28;6517;-65
2023/06/02 10:28:40;;;;;;;;;;;;;;;;;;5017539;28;1710;-63
2023/06/02 10:31:09;;;;;;;;;;;;;;;;;;5017452;28;1926;-58
2023/06/02 10:33:43;;;;;;;;;;;;;;;;;;5005783;28;1658;-63
2023/06/02 10:36:08;;;;;;;;;;;;;;;;;;5016455;28;1668;-55
2023/06/02 10:38:38;;;;;;;;;;;;;;;;;;5006886;28;1699;-49
2023/06/02 10:41:05;;;;;;;;;;;;;;;;;;5004881;28;1622;-54
2023/06/02 10:43:32;;;;;;;;;;;;;;;;;;4998987;28;1993;-57
2023/06/02 10:46:16;;;;;;;;;;;;;;;;;;4998959;28;6504;-60
2023/06/02 10:48:42;;;;;;;;;;;;;;;;;;4996620;28;5473;-55
2023/06/02 10:51:08;;;;;;;;;;;;;;;;;;4997979;28;5314;-56
2023/06/02 10:53:33;;;;;;;;;;;;;;;;;;5003119;28;4441;-54
2023/06/02 10:56:18;;;;;;;;;;;;;;;;;;5001516;28;5431;-58
2023/06/02 10:58:47;;;;;;;;;;;;;;;;;;4997375;28;2128;-59
2023/06/02 11:01:13;;;;;;;;;;;;;;;;;;5001705;28;1792;-57
2023/06/02 11:03:38;;;;;;;;;;;;;;;;;;5019822;28;1737;-58
2023/06/02 11:06:30;;;;;;;;;;;;;;;;;;5008491;28;1062;-57
2023/06/02 11:09:01;;;;;;;;;;;;;;;;;;5004681;28;1958;-59
2023/06/02 11:11:45;;;;;;;;;;;;;;;;;;5020731;28;2007;-57
2023/06/02 11:14:11;;;;;;;;;;;;;;;;;;5002697;28;6376;-57
2023/06/02 11:16:36;;;;;;;;;;;;;;;;;;4995207;28;5433;-56
2023/06/02 11:19:01;;;;;;;;;;;;;;;;;;5004622;28;5175;-53
2023/06/02 11:21:27;;;;;;;;;;;;;;;;;;5008445;28;3350;-56
2023/06/02 11:23:52;;;;;;;;;;;;;;;;;;5006307;28;2111;-54
2023/06/02 11:26:18;;;;;;;;;;;;;;;;;;5008640;28;1061;-57
2023/06/02 11:28:43;;;;;;;;;;;;;;;;;;5010965;28;1124;-54
2023/06/02 11:31:12;;;;;;;;;;;;;;;;;;5008368;28;1914;-58
2023/06/02 11:33:38;;;;;;;;;;;;;;;;;;5009370;28;1336;-56
2023/06/02 11:36:04;;;;;;;;;;;;;;;;;;5010893;28;1105;-57
2023/06/02 11:38:32;;;;;;;;;;;;;;;;;;5010786;28;1103;-55
2023/06/02 11:41:18;;;;;;;;;;;;;;;;;;5007994;28;1681;-58
2023/06/02 11:43:44;;;;;;;;;;;;;;;;;;5001406;28;926;-58
2023/06/02 11:46:16;;;;;;;;;;;;;;;;;;5010849;28;1690;-59
2023/06/02 11:48:41;;;;;;;;;;;;;;;;;;5019734;28;3219;-62
2023/06/02 11:51:08;;;;;;;;;;;;;;;;;;5000081;28;3054;-62
2023/06/02 11:53:34;;;;;;;;;;;;;;;;;;4983809;28;6527;-67
2023/06/02 11:55:59;;;;;;;;;;;;;;;;;;5003423;28;5438;-53
2023/06/02 11:58:27;;;;;;;;;;;;;;;;;;5001682;28;4581;-58
2023/06/02 12:00:53;;;;;;;;;;;;;;;;;;5008480;28;5234;-57
2023/06/02 12:03:18;;;;;;;;;;;;;;;;;;5009554;28;1392;-56
2023/06/02 12:05:45;;;;;;;;;;;;;;;;;;5024173;28;4789;-57
2023/06/02 12:08:25;;;;;;;;;;;;;;;;;;5007717;28;4468;-57
2023/06/02 12:10:51;;;;;;;;;;;;;;;;;;5007966;28;5482;-58
2023/06/02 12:13:22;;;;;;;;;;;;;;;;;;5011784;28;4509;-57
2023/06/02 12:15:48;;;;;;;;;;;;;;;;;;5006930;28;4586;-58
2023/06/02 12:18:13;;;;;;;;;;;;;;;;;;5000896;28;3477;-59
2023/06/02 12:20:42;;;;;;;;;;;;;;;;;;5013933;28;4772;-59
2023/06/02 12:23:08;;;;;;;;;;;;;;;;;;5006806;28;4441;-58
2023/06/02 12:25:33;;;;;;;;;;;;;;;;;;5008138;28;4416;-59
2023/06/02 12:28:12;;;;;;;;;;;;;;;;;;4999339;28;5598;-58
2023/06/02 12:30:38;;;;;;;;;;;;;;;;;;5005854;28;1185;-59
2023/06/02 12:33:09;;;;;;;;;;;;;;;;;;5006638;28;4588;-59
2023/06/02 12:35:35;;;;;;;;;;;;;;;;;;4998245;28;5580;-57
2023/06/02 12:38:03;;;;;;;;;;;;;;;;;;5004781;28;5116;-58
2023/06/02 12:40:29;;;;;;;;;;;;;;;;;;5010973;28;4878;-58
2023/06/02 12:42:54;;;;;;;;;;;;;;;;;;5014680;28;5047;-58
2023/06/02 12:45:20;;;;;;;;;;;;;;;;;;5005825;28;3968;-59
2023/06/02 12:47:45;;;;;;;;;;;;;;;;;;5005163;28;4940;-57
2023/06/02 12:50:11;;;;;;;;;;;;;;;;;;5008686;28;4537;-58
2023/06/02 12:52:36;;;;;;;;;;;;;;;;;;5006974;28;4503;-57
2023/06/02 12:55:01;;;;;;;;;;;;;;;;;;5006553;28;4439;-58
2023/06/02 12:57:27;;;;;;;;;;;;;;;;;;5003982;28;3180;-58
2023/06/02 12:59:52;;;;;;;;;;;;;;;;;;5008032;28;6467;-58
2023/06/02 13:02:17;;;;;;;;;;;;;;;;;;5007611;28;4731;-58
2023/06/02 13:04:43;;;;;;;;;;;;;;;;;;5008844;28;5131;-58
2023/06/02 13:07:08;;;;;;;;;;;;;;;;;;5001010;28;4720;-58
2023/06/02 13:09:34;;;;;;;;;;;;;;;;;;5009343;28;1176;-58
2023/06/02 13:12:00;;;;;;;;;;;;;;;;;;5005605;28;5094;-58
2023/06/02 13:14:26;;;;;;;;;;;;;;;;;;5008292;28;4957;-58
2023/06/02 13:16:52;;;;;;;;;;;;;;;;;;5007615;28;5532;-58
2023/06/02 13:19:17;;;;;;;;;;;;;;;;;;5001267;28;5159;-58
2023/06/02 13:21:42;;;;;;;;;;;;;;;;;;5002250;28;5021;-58
2023/06/02 13:24:07;;;;;;;;;;;;;;;;;;5008074;28;1098;-58
2023/06/02 13:26:33;;;;;;;;;;;;;;;;;;5004462;28;4616;-58
2023/06/02 13:28:58;;;;;;;;;;;;;;;;;;5007528;28;4702;-58
2023/06/02 13:31:24;;;;;;;;;;;;;;;;;;5017518;28;4487;-58
2023/06/02 13:33:49;;;;;;;;;;;;;;;;;;5007910;28;4628;-58
2023/06/02 13:36:15;;;;;;;;;;;;;;;;;;5008292;28;1485;-58
2023/06/02 13:38:42;;;;;;;;;;;;;;;;;;5019243;28;4650;-58
2023/06/02 13:41:07;;;;;;;;;;;;;;;;;;5007586;28;4475;-58
2023/06/02 13:43:32;;;;;;;;;;;;;;;;;;5007158;28;4788;-58
2023/06/02 13:45:58;;;;;;;;;;;;;;;;;;5004671;28;4627;-58
2023/06/02 13:48:23;;;;;;;;;;;;;;;;;;5005585;28;3212;-59
2023/06/02 13:50:48;;;;;;;;;;;;;;;;;;5007431;28;4378;-58
2023/06/02 13:53:13;;;;;;;;;;;;;;;;;;5004379;28;4638;-57
2023/06/02 13:55:39;;;;;;;;;;;;;;;;;;5039012;28;4634;-57
2023/06/02 13:58:04;;;;;;;;;;;;;;;;;;5006067;28;4678;-59
2023/06/02 14:00:29;;;;;;;;;;;;;;;;;;5007227;28;4965;-58
2023/06/02 14:02:55;;;;;;;;;;;;;;;;;;5000766;28;4673;-56
2023/06/02 14:05:20;;;;;;;;;;;;;;;;;;5005591;28;5082;-58
2023/06/02 14:07:45;;;;;;;;;;;;;;;;;;5001783;28;5408;-58
2023/06/02 14:10:10;;;;;;;;;;;;;;;;;;5007426;28;5022;-58
2023/06/02 14:12:36;;;;;;;;;;;;;;;;;;5007434;28;3250;-58
2023/06/02 14:15:01;;;;;;;;;;;;;;;;;;5004576;28;4997;-58
2023/06/02 14:17:27;;;;;;;;;;;;;;;;;;5003858;28;4850;-57
2023/06/02 14:19:52;;;;;;;;;;;;;;;;;;5002818;28;4524;-58
2023/06/02 14:22:18;;;;;;;;;;;;;;;;;;5013314;28;1268;-57
2023/06/02 14:24:43;;;;;;;;;;;;;;;;;;4993652;28;6407;-58
2023/06/02 14:27:08;;;;;;;;;;;;;;;;;;5004019;28;5080;-58
2023/06/02 14:29:34;;;;;;;;;;;;;;;;;;5002592;28;5325;-58
2023/06/02 14:32:00;;;;;;;;;;;;;;;;;;5004797;28;5543;-59
2023/06/02 14:34:25;;;;;;;;;;;;;;;;;;5006838;28;4932;-58
2023/06/02 14:36:50;;;;;;;;;;;;;;;;;;5005801;28;4564;-59
2023/06/02 14:39:16;;;;;;;;;;;;;;;;;;5005915;28;4823;-58
2023/06/02 14:41:42;;;;;;;;;;;;;;;;;;5004363;28;5220;-58
2023/06/02 14:44:07;;;;;;;;;;;;;;;;;;5006163;28;3187;-59
2023/06/02 14:46:33;;;;;;;;;;;;;;;;;;5006289;28;4432;-58
2023/06/02 14:48:58;;;;;;;;;;;;;;;;;;5006503;28;4472;-58
2023/06/02 14:51:23;;;;;;;;;;;;;;;;;;5004453;28;5083;-58
2023/06/02 14:53:49;;;;;;;;;;;;;;;;;;5006081;28;5127;-59
2023/06/02 14:56:16;;;;;;;;;;;;;;;;;;5008206;28;3004;-58
2023/06/02 14:58:42;;;;;;;;;;;;;;;;;;4991936;28;5181;-58
2023/06/02 15:01:07;;;;;;;;;;;;;;;;;;5001716;28;4576;-57
2023/06/02 15:03:33;;;;;;;;;;;;;;;;;;5002857;28;4648;-57
2023/06/02 15:05:58;;;;;;;;;;;;;;;;;;5006609;28;4460;-56
2023/06/02 15:08:23;;;;;;;;;;;;;;;;;;5002462;28;4516;-58
2023/06/02 15:10:48;;;;;;;;;;;;;;;;;;5005444;28;3564;-58
2023/06/02 15:13:14;;;;;;;;;;;;;;;;;;5011875;28;4561;-58
2023/06/02 15:15:39;;;;;;;;;;;;;;;;;;5009181;28;4921;-58
2023/06/02 15:18:04;;;;;;;;;;;;;;;;;;5005849;28;4478;-58
2023/06/02 15:20:30;;;;;;;;;;;;;;;;;;5008575;28;4963;-58
2023/06/02 15:22:55;;;;;;;;;;;;;;;;;;5008765;28;1157;-58
2023/06/02 15:25:20;;;;;;;;;;;;;;;;;;5006739;28;4430;-58
2023/06/02 15:27:45;;;;;;;;;;;;;;;;;;5007401;28;4575;-57
2023/06/02 15:30:11;;;;;;;;;;;;;;;;;;5009177;28;4877;-58
2023/06/02 15:32:36;;;;;;;;;;;;;;;;;;5006990;28;6346;-58
2023/06/02 15:35:02;;;;;;;;;;;;;;;;;;5037755;28;3170;-58
2023/06/02 15:37:28;;;;;;;;;;;;;;;;;;5004900;28;5261;-58
2023/06/02 15:39:53;;;;;;;;;;;;;;;;;;5004522;28;4934;-57
2023/06/02 15:42:18;;;;;;;;;;;;;;;;;;5004321;28;5017;-57
2023/06/02 15:44:43;;;;;;;;;;;;;;;;;;5008101;28;5053;-57
2023/06/02 15:47:09;;;;;;;;;;;;;;;;;;5009988;28;1425;-57
2023/06/02 15:49:34;;;;;;;;;;;;;;;;;;5007483;28;4588;-58
2023/06/02 15:52:00;;;;;;;;;;;;;;;;;;5017276;28;4598;-57
2023/06/02 15:54:25;;;;;;;;;;;;;;;;;;5007776;28;4514;-58
2023/06/02 15:56:51;;;;;;;;;;;;;;;;;;5004347;28;5101;-58
2023/06/02 15:59:17;;;;;;;;;;;;;;;;;;5004171;28;3141;-58
2023/06/02 16:01:42;;;;;;;;;;;;;;;;;;5023537;28;4598;-58
2023/06/02 16:04:07;;;;;;;;;;;;;;;;;;4993865;28;5945;-59
2023/06/02 16:06:33;;;;;;;;;;;;;;;;;;4997919;28;4499;-59
2023/06/02 16:08:59;;;;;;;;;;;;;;;;;;5009394;28;5089;-58
2023/06/02 16:11:25;;;;;;;;;;;;;;;;;;5005934;28;4502;-58
2023/06/02 16:13:51;;;;;;;;;;;;;;;;;;5008552;28;1210;-58
2023/06/02 16:16:16;;;;;;;;;;;;;;;;;;5002718;28;5020;-58
2023/06/02 16:18:41;;;;;;;;;;;;;;;;;;5001433;28;4482;-58
2023/06/02 16:21:07;;;;;;;;;;;;;;;;;;4998093;28;5135;-58
2023/06/02 16:23:32;;;;;;;;;;;;;;;;;;4988258;28;4700;-59
2023/06/02 16:25:58;;;;;;;;;;;;;;;;;;4999048;28;3352;-59
2023/06/02 16:28:23;;;;;;;;;;;;;;;;;;5002765;28;5045;-58
2023/06/02 16:30:48;;;;;;;;;;;;;;;;;;5002721;28;4829;-59
2023/06/02 16:33:13;;;;;;;;;;;;;;;;;;4997497;28;5081;-58
2023/06/02 16:35:39;;;;;;;;;;;;;;;;;;5003976;28;4490;-55
2023/06/02 16:38:05;;;;;;;;;;;;;;;;;;5001269;28;3470;-56
2023/06/02 16:40:30;;;;;;;;;;;;;;;;;;5005310;28;4404;-57
2023/06/02 16:42:55;;;;;;;;;;;;;;;;;;5000128;28;4944;-58
2023/06/02 16:45:20;;;;;;;;;;;;;;;;;;5002425;28;4535;-58
2023/06/02 16:47:46;;;;;;;;;;;;;;;;;;5005545;28;5086;-58
2023/06/02 16:50:11;;;;;;;;;;;;;;;;;;5002056;28;3424;-58
2023/06/02 16:52:36;;;;;;;;;;;;;;;;;;5005706;28;4569;-58
2023/06/02 16:55:02;;;;;;;;;;;;;;;;;;4997130;28;4475;-58
2023/06/02 16:57:27;;;;;;;;;;;;;;;;;;5004033;28;5138;-59